Time;durP1;ratioP1;P1;durP2;ratioP2;P2;SDS_P1;SDS_P2;PMS_P1;PMS_P2;Temp;Humidity;BMP_temperature;BMP_pressure;BME280_temperature;BME280_humidity;BME280_pressure;Samples;Min_cycle;Max_cycle;Signal;HPM_P1;HPM_P2
2021/12/22 00:00:37;;;;;;;1.80;1.70;;;20.00;51.90;;;;;;5010846;28;20462;-66
2021/12/22 00:03:05;;;;;;;1.60;1.50;;;20.00;51.80;;;;;;5004473;28;20026;-67
2021/12/22 00:05:31;;;;;;;1.73;1.63;;;20.00;51.80;;;;;;4992172;28;20049;-66
2021/12/22 00:07:57;;;;;;;1.48;1.38;;;20.00;51.90;;;;;;4992106;28;20082;-67
2021/12/22 00:10:23;;;;;;;1.63;1.48;;;20.00;51.80;;;;;;4992082;28;20032;-66
2021/12/22 00:12:49;;;;;;;1.83;1.73;;;20.00;51.80;;;;;;4992975;28;20060;-66
2021/12/22 00:15:14;;;;;;;1.70;1.60;;;20.00;51.70;;;;;;4992091;28;20432;-67
2021/12/22 00:17:40;;;;;;;1.60;1.42;;;20.00;52.70;;;;;;4991927;28;20026;-66
2021/12/22 00:20:07;;;;;;;1.60;1.50;;;20.00;51.70;;;;;;4993212;28;20077;-66
2021/12/22 00:22:32;;;;;;;1.60;1.50;;;20.00;51.70;;;;;;4993037;28;20018;-66
2021/12/22 00:24:58;;;;;;;1.60;1.50;;;20.00;51.70;;;;;;4993027;28;20026;-66
2021/12/22 00:27:23;;;;;;;1.60;1.50;;;20.00;51.70;;;;;;4992715;28;20030;-66
2021/12/22 00:29:51;;;;;;;1.60;1.50;;;20.00;51.60;;;;;;4992103;28;20057;-66
2021/12/22 00:32:17;;;;;;;1.63;1.52;;;20.00;51.70;;;;;;4992093;28;20028;-66
2021/12/22 00:34:49;;;;;;;1.70;1.60;;;20.10;51.60;;;;;;4991626;28;20038;-66
2021/12/22 00:37:17;;;;;;;1.65;1.55;;;20.00;51.60;;;;;;4991737;28;20129;-66
2021/12/22 00:39:43;;;;;;;1.48;1.38;;;20.00;51.60;;;;;;4991748;28;20037;-66
2021/12/22 00:42:10;;;;;;;1.55;1.42;;;20.00;51.60;;;;;;4992749;28;20121;-66
2021/12/22 00:44:36;;;;;;;1.70;1.60;;;20.00;51.50;;;;;;4998800;28;20018;-66
2021/12/22 00:47:02;;;;;;;1.52;1.42;;;20.00;51.60;;;;;;5012590;28;20397;-66
2021/12/22 00:49:28;;;;;;;1.67;1.58;;;20.10;51.60;;;;;;5012358;28;20388;-66
2021/12/22 00:51:53;;;;;;;1.50;1.40;;;20.00;51.50;;;;;;5011327;28;20038;-66
2021/12/22 00:54:19;;;;;;;1.65;1.55;;;20.00;51.40;;;;;;5011325;28;20500;-66
2021/12/22 00:56:45;;;;;;;1.77;1.67;;;20.00;51.50;;;;;;5010953;28;20100;-66
2021/12/22 00:59:10;;;;;;;1.63;1.52;;;20.00;51.50;;;;;;5011217;28;20554;-66
2021/12/22 01:01:36;;;;;;;1.70;1.60;;;20.00;51.50;;;;;;5012166;28;20062;-66
2021/12/22 01:04:02;;;;;;;1.63;1.52;;;20.00;51.50;;;;;;5010960;28;20018;-66
2021/12/22 01:06:27;;;;;;;1.30;1.20;;;20.00;51.50;;;;;;4994841;28;20026;-66
2021/12/22 01:08:53;;;;;;;1.73;1.63;;;20.00;51.50;;;;;;5011003;28;20074;-67
2021/12/22 01:11:19;;;;;;;1.60;1.50;;;20.00;51.40;;;;;;5011917;28;20472;-66
2021/12/22 01:13:44;;;;;;;1.60;1.50;;;20.00;51.40;;;;;;5015638;28;20024;-66
2021/12/22 01:16:10;;;;;;;1.73;1.63;;;20.00;51.30;;;;;;5016290;28;20503;-66
2021/12/22 01:18:36;;;;;;;1.63;1.52;;;20.00;51.40;;;;;;5016086;28;20400;-66
2021/12/22 01:21:16;;;;;;;1.70;1.60;;;20.00;51.40;;;;;;5014961;28;20101;-66
2021/12/22 01:24:00;;;;;;;1.50;1.40;;;20.00;51.40;;;;;;5014668;28;20018;-66
2021/12/22 01:26:30;;;;;;;1.75;1.65;;;20.00;51.40;;;;;;5014298;28;20026;-66
2021/12/22 01:28:56;;;;;;;1.63;1.52;;;20.00;51.40;;;;;;4998894;28;20623;-66
2021/12/22 01:31:22;;;;;;;1.52;1.42;;;20.00;51.40;;;;;;5015993;28;20026;-66
2021/12/22 01:33:48;;;;;;;1.52;1.42;;;20.00;51.30;;;;;;5014471;28;20026;-67
2021/12/22 01:36:13;;;;;;;1.45;1.35;;;20.00;51.30;;;;;;5015774;28;20029;-66
2021/12/22 01:38:39;;;;;;;1.38;1.33;;;20.00;51.30;;;;;;5014384;28;20026;-67
2021/12/22 01:41:05;;;;;;;1.60;1.50;;;20.00;51.30;;;;;;4997806;28;20065;-66
2021/12/22 01:43:30;;;;;;;1.45;1.35;;;20.00;51.20;;;;;;5014320;28;20033;-67
2021/12/22 01:52:12;;;;;;;1.67;1.58;;;20.10;51.10;;;;;;4994828;28;20037;-66
2021/12/22 01:54:49;;;;;;;1.63;1.52;;;20.00;51.30;;;;;;4954398;29;20043;-66
2021/12/22 01:57:15;;;;;;;1.52;1.42;;;20.00;51.30;;;;;;4939572;29;20035;-66
2021/12/22 01:59:42;;;;;;;2.33;1.80;;;20.00;51.30;;;;;;4954532;29;20113;-66
2021/12/22 02:02:08;;;;;;;1.50;1.40;;;20.00;51.30;;;;;;4954774;29;20462;-66
2021/12/22 02:04:35;;;;;;;1.70;1.52;;;20.00;51.20;;;;;;4938689;29;20038;-67
2021/12/22 02:07:00;;;;;;;1.33;1.30;;;20.00;51.20;;;;;;4954583;29;20482;-67
2021/12/22 02:12:12;;;;;;;1.48;1.38;;;20.00;51.20;;;;;;4954906;29;20106;-66
2021/12/22 02:14:40;;;;;;;1.50;1.40;;;20.00;51.20;;;;;;4954490;28;20239;-66
2021/12/22 02:17:08;;;;;;;1.50;1.40;;;19.90;51.20;;;;;;4954557;29;20083;-66
2021/12/22 02:19:41;;;;;;;1.40;1.30;;;20.00;51.20;;;;;;4938799;29;20042;-66
2021/12/22 02:22:12;;;;;;;1.50;1.40;;;20.00;51.20;;;;;;4938544;29;20089;-67
2021/12/22 02:24:39;;;;;;;1.50;1.40;;;20.00;51.20;;;;;;4964982;28;20419;-66
2021/12/22 02:27:11;;;;;;;1.50;1.40;;;19.90;51.10;;;;;;5013827;28;20022;-66
2021/12/22 02:29:39;;;;;;;1.30;1.23;;;20.00;51.10;;;;;;5014741;28;20101;-66
2021/12/22 02:32:12;;;;;;;1.50;1.40;;;20.00;51.10;;;;;;5014917;28;20113;-66
2021/12/22 02:34:44;;;;;;;1.83;1.45;;;20.00;51.00;;;;;;4997841;28;20172;-66
2021/12/22 02:37:12;;;;;;;1.50;1.40;;;20.00;51.10;;;;;;4998126;28;20026;-67
2021/12/22 02:39:45;;;;;;;1.60;1.50;;;20.00;51.10;;;;;;4996841;28;20447;-66
2021/12/22 02:42:12;;;;;;;1.65;1.55;;;20.00;51.00;;;;;;5014718;28;20033;-66
2021/12/22 02:44:38;;;;;;;1.60;1.50;;;20.00;51.00;;;;;;5014196;28;20026;-66
2021/12/22 02:47:23;;;;;;;1.60;1.50;;;20.00;51.00;;;;;;5014403;28;20076;-67
2021/12/22 02:49:49;;;;;;;1.30;1.20;;;20.00;50.80;;;;;;4980781;28;20026;-66
2021/12/22 02:52:15;;;;;;;1.25;1.15;;;20.00;51.00;;;;;;4996737;28;20024;-66
2021/12/22 02:54:51;;;;;;;1.50;1.40;;;20.00;51.00;;;;;;5012999;28;20080;-66
2021/12/22 02:57:29;;;;;;;1.65;1.50;;;20.00;51.00;;;;;;5014184;28;20018;-66
2021/12/22 03:05:07;;;;;;;1.50;1.35;;;20.00;51.10;;;;;;4993373;28;20518;-66
2021/12/22 03:07:33;;;;;;;2.00;1.60;;;19.90;50.80;;;;;;4976759;28;20055;-67
2021/12/22 03:10:01;;;;;;;1.23;1.13;;;20.00;51.00;;;;;;4993212;28;20386;-66
2021/12/22 03:12:29;;;;;;;2.10;1.65;;;20.00;51.00;;;;;;4993144;28;20037;-66
2021/12/22 03:14:54;;;;;;;1.20;1.20;;;19.90;50.90;;;;;;4993091;28;20101;-66
2021/12/22 03:17:21;;;;;;;1.50;1.40;;;20.00;51.00;;;;;;4994264;28;20094;-66
2021/12/22 03:19:47;;;;;;;1.40;1.30;;;20.00;51.00;;;;;;4994212;28;20478;-66
2021/12/22 03:22:17;;;;;;;1.40;1.30;;;20.00;50.90;;;;;;4992804;28;20105;-66
2021/12/22 03:24:45;;;;;;;1.48;1.38;;;20.00;50.90;;;;;;4994151;28;20018;-66
2021/12/22 03:27:10;;;;;;;1.40;1.30;;;20.00;50.90;;;;;;4976981;28;20481;-66
2021/12/22 03:29:37;;;;;;;1.50;1.40;;;19.90;50.80;;;;;;4994036;28;20029;-66
2021/12/22 03:32:03;;;;;;;1.30;1.20;;;19.90;50.90;;;;;;4992851;28;20034;-66
2021/12/22 03:34:29;;;;;;;1.25;1.25;;;19.90;50.80;;;;;;4994096;28;20029;-66
2021/12/22 03:36:54;;;;;;;1.38;1.27;;;20.00;50.80;;;;;;4992262;28;20030;-67
2021/12/22 03:39:20;;;;;;;1.50;1.40;;;19.90;50.80;;;;;;4993887;28;20102;-66
2021/12/22 03:41:46;;;;;;;1.58;1.48;;;20.00;50.80;;;;;;4992499;28;20034;-66
2021/12/22 03:44:12;;;;;;;1.40;1.30;;;19.90;50.70;;;;;;4996833;28;20100;-66
2021/12/22 03:46:37;;;;;;;1.20;1.10;;;20.00;50.80;;;;;;5012132;28;20040;-66
2021/12/22 03:49:07;;;;;;;1.20;1.20;;;19.90;50.70;;;;;;4995602;28;20025;-67
2021/12/22 03:51:33;;;;;;;1.35;1.30;;;20.00;50.80;;;;;;4995718;28;20056;-66
2021/12/22 03:53:58;;;;;;;1.25;1.15;;;20.00;50.80;;;;;;5011942;28;20033;-66
2021/12/22 03:56:24;;;;;;;1.40;1.30;;;20.00;50.80;;;;;;5013306;28;20408;-66
2021/12/22 03:58:50;;;;;;;1.35;1.25;;;20.00;50.80;;;;;;5013039;28;20045;-66
2021/12/22 04:01:16;;;;;;;1.23;1.17;;;20.00;50.80;;;;;;5012908;28;20034;-66
2021/12/22 04:03:44;;;;;;;1.48;1.20;;;19.90;50.70;;;;;;4995294;28;20028;-66
2021/12/22 04:06:10;;;;;;;1.23;1.13;;;20.00;50.70;;;;;;5011440;28;20506;-66
2021/12/22 04:08:36;;;;;;;1.10;1.10;;;20.00;50.70;;;;;;4995339;28;20042;-66
2021/12/22 04:11:01;;;;;;;1.10;1.10;;;20.00;50.70;;;;;;5011715;28;20052;-66
2021/12/22 04:13:27;;;;;;;1.27;1.20;;;19.90;50.70;;;;;;5012041;28;20038;-66
2021/12/22 04:15:52;;;;;;;1.23;1.13;;;20.00;50.70;;;;;;5011647;28;20022;-66
2021/12/22 04:18:18;;;;;;;1.45;1.35;;;20.00;50.70;;;;;;5013131;28;20040;-66
2021/12/22 04:20:44;;;;;;;1.58;1.48;;;19.90;50.60;;;;;;5011203;28;20026;-66
2021/12/22 04:23:10;;;;;;;1.40;1.30;;;20.00;50.70;;;;;;5011591;28;20080;-66
2021/12/22 04:25:36;;;;;;;1.50;1.40;;;20.00;50.70;;;;;;4995144;28;20076;-66
2021/12/22 04:28:05;;;;;;;1.50;1.40;;;20.00;50.60;;;;;;4979007;28;20026;-66
2021/12/22 04:30:32;;;;;;;1.05;1.05;;;20.00;50.70;;;;;;4995587;28;20076;-66
2021/12/22 04:32:58;;;;;;;1.30;1.20;;;19.90;50.60;;;;;;5011447;28;20112;-66
2021/12/22 04:35:24;;;;;;;1.30;1.20;;;20.00;50.60;;;;;;4994970;28;20133;-66
2021/12/22 04:37:50;;;;;;;1.30;1.20;;;19.90;50.60;;;;;;5011403;28;20113;-66
2021/12/22 04:40:15;;;;;;;1.30;1.20;;;19.90;50.50;;;;;;5012616;28;20022;-66
2021/12/22 04:42:42;;;;;;;1.45;1.35;;;19.90;50.50;;;;;;5011422;28;20034;-66
2021/12/22 04:45:08;;;;;;;1.40;1.30;;;19.90;50.50;;;;;;5012432;28;20027;-66
2021/12/22 04:47:34;;;;;;;1.10;1.10;;;19.90;50.50;;;;;;5014899;28;20484;-66
2021/12/22 04:50:01;;;;;;;1.40;1.30;;;19.90;50.50;;;;;;5017406;28;20026;-66
2021/12/22 04:52:35;;;;;;;1.40;1.30;;;19.90;50.50;;;;;;5018954;28;20022;-66
2021/12/22 04:55:04;;;;;;;1.40;1.30;;;19.90;50.50;;;;;;5017677;28;20069;-66
2021/12/22 04:57:30;;;;;;;1.40;1.30;;;19.90;50.50;;;;;;5019147;28;20093;-66
2021/12/22 04:59:56;;;;;;;1.40;1.30;;;19.90;50.50;;;;;;5018864;28;20072;-66
2021/12/22 05:02:22;;;;;;;1.30;1.20;;;19.90;51.40;;;;;;5014610;28;20030;-66
2021/12/22 05:04:47;;;;;;;1.48;1.38;;;19.90;50.40;;;;;;4997719;28;20138;-66
2021/12/22 05:07:13;;;;;;;1.30;1.20;;;19.90;50.40;;;;;;4997889;28;20047;-66
2021/12/22 05:09:38;;;;;;;1.42;1.33;;;19.90;50.40;;;;;;4999244;28;20030;-66
2021/12/22 05:12:04;;;;;;;1.10;1.10;;;19.90;50.40;;;;;;4997992;28;20030;-66
2021/12/22 05:14:31;;;;;;;1.20;1.20;;;19.90;50.40;;;;;;4999150;28;20027;-66
2021/12/22 05:17:02;;;;;;;1.55;1.45;;;19.90;50.40;;;;;;4998812;28;20045;-66
2021/12/22 05:19:28;;;;;;;1.52;1.42;;;19.90;50.40;;;;;;4999325;28;20026;-66
2021/12/22 05:21:53;;;;;;;1.60;1.50;;;19.90;50.30;;;;;;4997753;28;20029;-66
2021/12/22 05:24:19;;;;;;;1.38;1.27;;;19.90;50.30;;;;;;4981979;28;20029;-66
2021/12/22 05:26:45;;;;;;;1.58;1.48;;;19.90;50.30;;;;;;4998855;28;20022;-66
2021/12/22 05:29:12;;;;;;;1.45;1.35;;;19.90;50.30;;;;;;4998901;28;20027;-66
2021/12/22 05:31:37;;;;;;;1.38;1.27;;;19.90;50.30;;;;;;4998882;28;20023;-66
2021/12/22 05:34:03;;;;;;;1.58;1.48;;;19.90;50.30;;;;;;4997619;28;20041;-66
2021/12/22 05:36:29;;;;;;;1.58;1.48;;;19.90;50.30;;;;;;4997809;28;20030;-66
2021/12/22 05:38:54;;;;;;;1.55;1.45;;;19.90;50.30;;;;;;4997876;28;20042;-66
2021/12/22 05:41:20;;;;;;;1.48;1.40;;;19.90;50.30;;;;;;4997604;28;20117;-66
2021/12/22 05:43:46;;;;;;;1.50;1.40;;;19.90;50.20;;;;;;4999546;28;20097;-66
2021/12/22 05:46:11;;;;;;;1.60;1.50;;;19.90;50.20;;;;;;5017057;28;20129;-66
2021/12/22 05:48:37;;;;;;;1.42;1.33;;;19.90;50.20;;;;;;5017222;28;20021;-66
2021/12/22 05:51:03;;;;;;;1.40;1.30;;;19.90;50.20;;;;;;5017242;28;20108;-66
2021/12/22 05:53:28;;;;;;;1.70;1.60;;;19.90;50.20;;;;;;5018512;28;20088;-66
2021/12/22 05:55:54;;;;;;;1.50;1.40;;;19.90;50.20;;;;;;5017177;28;20029;-66
2021/12/22 05:58:20;;;;;;;1.55;1.45;;;19.90;50.20;;;;;;5015496;28;20405;-66
2021/12/22 06:00:46;;;;;;;1.33;1.23;;;19.90;50.10;;;;;;4997302;28;20026;-66
2021/12/22 06:03:12;;;;;;;1.50;1.40;;;19.90;50.10;;;;;;4997608;28;20048;-66
2021/12/22 06:05:38;;;;;;;1.60;1.50;;;19.90;50.10;;;;;;5014054;28;20033;-66
2021/12/22 06:08:04;;;;;;;1.30;1.20;;;19.90;50.10;;;;;;5013649;28;20423;-66
2021/12/22 06:10:30;;;;;;;1.25;1.20;;;19.90;50.10;;;;;;5014005;28;20022;-66
2021/12/22 06:12:56;;;;;;;1.60;1.50;;;19.90;50.10;;;;;;5015070;28;20036;-66
2021/12/22 06:15:21;;;;;;;1.83;1.73;;;19.90;50.10;;;;;;5013778;28;20501;-66
2021/12/22 06:17:53;;;;;;;1.52;1.42;;;19.90;50.10;;;;;;5013668;28;20439;-66
2021/12/22 06:20:19;;;;;;;1.40;1.30;;;19.90;50.10;;;;;;5015020;28;20021;-66
2021/12/22 06:22:44;;;;;;;1.63;1.52;;;19.90;50.00;;;;;;5014826;28;20506;-66
2021/12/22 06:25:10;;;;;;;1.33;1.33;;;19.90;50.10;;;;;;5013348;28;20080;-66
2021/12/22 06:27:35;;;;;;;1.50;1.40;;;19.90;50.00;;;;;;5013812;28;20105;-66
2021/12/22 06:30:01;;;;;;;1.40;1.30;;;19.90;50.10;;;;;;5014185;28;20022;-66
2021/12/22 06:32:27;;;;;;;1.50;1.40;;;19.80;50.90;;;;;;5014735;28;20034;-66
2021/12/22 06:34:52;;;;;;;1.60;1.50;;;19.90;50.00;;;;;;5014867;28;20108;-66
2021/12/22 06:37:18;;;;;;;1.40;1.30;;;19.80;50.00;;;;;;5013555;28;20100;-66
2021/12/22 06:39:44;;;;;;;1.67;1.58;;;19.80;50.90;;;;;;4997161;28;20030;-66
2021/12/22 06:42:09;;;;;;;1.50;1.40;;;19.80;50.00;;;;;;5014519;28;20040;-66
2021/12/22 06:44:35;;;;;;;1.52;1.42;;;19.90;50.00;;;;;;5013977;28;20496;-66
2021/12/22 06:47:00;;;;;;;1.40;1.40;;;19.80;49.90;;;;;;5013276;28;20065;-66
2021/12/22 06:49:26;;;;;;;1.40;1.30;;;19.90;49.90;;;;;;5014682;28;20061;-66
2021/12/22 06:51:52;;;;;;;1.30;1.30;;;19.80;49.80;;;;;;5014644;28;20034;-66
2021/12/22 06:54:17;;;;;;;1.40;1.30;;;19.80;50.00;;;;;;4996551;28;20053;-66
2021/12/22 06:56:43;;;;;;;1.60;1.50;;;19.80;49.80;;;;;;5013198;28;20034;-66
2021/12/22 06:59:09;;;;;;;1.58;1.48;;;19.80;49.80;;;;;;4996490;28;20459;-66
2021/12/22 07:01:36;;;;;;;1.38;1.33;;;19.80;49.90;;;;;;5013154;28;20030;-66
2021/12/22 07:04:03;;;;;;;1.67;1.58;;;19.80;49.80;;;;;;4997539;28;20018;-66
2021/12/22 07:06:30;;;;;;;1.73;1.63;;;19.80;49.80;;;;;;4994343;28;20489;-66
2021/12/22 07:08:56;;;;;;;1.65;1.55;;;19.80;49.80;;;;;;4994446;28;20543;-66
2021/12/22 07:11:22;;;;;;;1.55;1.45;;;19.80;49.80;;;;;;4976923;28;20512;-66
2021/12/22 07:13:48;;;;;;;1.75;1.65;;;19.80;49.80;;;;;;4976995;28;20030;-66
2021/12/22 07:16:14;;;;;;;1.33;1.23;;;19.80;49.80;;;;;;4992876;28;20034;-66
2021/12/22 07:18:40;;;;;;;1.60;1.50;;;19.80;49.70;;;;;;4976917;28;20109;-66
2021/12/22 07:21:05;;;;;;;1.95;1.50;;;19.80;49.70;;;;;;4993060;28;20117;-66
2021/12/22 07:23:31;;;;;;;1.52;1.42;;;19.80;49.70;;;;;;4994401;28;20054;-66
2021/12/22 07:25:56;;;;;;;1.50;1.40;;;19.80;49.70;;;;;;4992997;28;20123;-66
2021/12/22 07:28:22;;;;;;;1.38;1.27;;;19.80;49.70;;;;;;4992515;28;20046;-66
2021/12/22 07:30:48;;;;;;;1.50;1.40;;;19.80;49.70;;;;;;4993002;28;20065;-66
2021/12/22 07:33:13;;;;;;;1.50;1.40;;;19.80;49.70;;;;;;4992596;28;20037;-66
2021/12/22 07:35:43;;;;;;;1.55;1.45;;;19.80;49.70;;;;;;4993985;28;20061;-66
2021/12/22 07:38:38;;;;;;;1.65;1.55;;;19.80;50.60;;;;;;4992792;28;20080;-66
2021/12/22 07:41:06;;;;;;;1.50;1.40;;;19.80;49.30;;;;;;4980861;28;20038;-66
2021/12/22 07:43:32;;;;;;;1.50;1.40;;;19.80;49.70;;;;;;4976420;28;20026;-66
2021/12/22 07:45:57;;;;;;;1.38;1.35;;;19.80;49.70;;;;;;4994747;28;20467;-66
2021/12/22 07:48:23;;;;;;;1.60;1.50;;;19.80;49.70;;;;;;4995767;28;20022;-66
2021/12/22 07:50:49;;;;;;;1.60;1.50;;;19.80;49.70;;;;;;5012351;28;20065;-66
2021/12/22 07:53:14;;;;;;;1.70;1.60;;;19.80;49.60;;;;;;5012080;28;20018;-66
2021/12/22 07:55:40;;;;;;;1.50;1.40;;;19.80;49.70;;;;;;5013233;28;20396;-66
2021/12/22 07:58:07;;;;;;;1.48;1.38;;;19.80;49.60;;;;;;5012882;28;20474;-66
2021/12/22 08:00:33;;;;;;;1.50;1.40;;;19.80;49.60;;;;;;5013144;28;20045;-66
2021/12/22 08:02:58;;;;;;;1.50;1.40;;;19.80;49.70;;;;;;4987488;28;20444;-66
2021/12/22 08:05:24;;;;;;;1.40;1.30;;;19.80;49.60;;;;;;4992104;28;20118;-66
2021/12/22 08:07:50;;;;;;;1.45;1.35;;;19.80;49.60;;;;;;4992089;28;20053;-66
2021/12/22 08:10:16;;;;;;;1.45;1.35;;;19.80;49.50;;;;;;4993355;28;20109;-66
2021/12/22 08:12:41;;;;;;;1.55;1.30;;;19.80;49.60;;;;;;4993074;28;20445;-66
2021/12/22 08:15:07;;;;;;;1.45;1.40;;;19.80;49.60;;;;;;4993171;28;20133;-66
2021/12/22 08:17:34;;;;;;;1.48;1.38;;;19.80;49.60;;;;;;4993376;28;20023;-66
2021/12/22 08:20:00;;;;;;;1.45;1.20;;;19.70;49.50;;;;;;4992132;28;20034;-66
2021/12/22 08:22:26;;;;;;;1.30;1.20;;;19.80;49.50;;;;;;4991152;28;20022;-66
2021/12/22 08:24:52;;;;;;;1.17;1.17;;;19.80;49.50;;;;;;4991975;28;20499;-66
2021/12/22 08:27:18;;;;;;;1.40;1.30;;;19.80;49.50;;;;;;4992794;28;20027;-66
2021/12/22 08:29:44;;;;;;;1.25;1.20;;;19.80;49.50;;;;;;4993188;28;20010;-66
2021/12/22 08:32:13;;;;;;;1.45;1.35;;;19.80;49.50;;;;;;4991806;28;20049;-66
2021/12/22 08:34:40;;;;;;;1.27;1.20;;;19.80;49.50;;;;;;4993057;28;20555;-66
2021/12/22 08:39:50;;;;;;;1.05;1.05;;;19.70;49.50;;;;;;4978570;28;20037;-66
2021/12/22 08:42:16;;;;;;;1.40;1.30;;;19.80;49.50;;;;;;4991338;28;20022;-66
2021/12/22 08:44:42;;;;;;;1.33;1.20;;;19.80;49.50;;;;;;4999723;28;20025;-66
2021/12/22 08:47:07;;;;;;;1.45;1.33;;;19.80;49.50;;;;;;5011433;28;20018;-66
2021/12/22 08:49:33;;;;;;;1.40;1.30;;;19.80;49.60;;;;;;5011390;28;20519;-66
2021/12/22 08:51:59;;;;;;;1.40;1.30;;;19.80;49.50;;;;;;5011500;28;20026;-66
2021/12/22 08:54:24;;;;;;;1.25;1.20;;;19.80;49.50;;;;;;5011247;28;20072;-66
2021/12/22 08:56:50;;;;;;;1.10;1.10;;;19.70;49.40;;;;;;5011058;28;20018;-66
2021/12/22 08:59:16;;;;;;;1.38;1.35;;;19.80;49.40;;;;;;5010979;28;20069;-66
2021/12/22 09:01:42;;;;;;;1.50;1.40;;;19.80;49.50;;;;;;4994997;28;20026;-66
2021/12/22 09:04:07;;;;;;;1.05;1.05;;;19.80;49.50;;;;;;5011058;28;20055;-66
2021/12/22 09:06:33;;;;;;;1.48;1.40;;;19.80;49.40;;;;;;4994754;28;20026;-66
2021/12/22 09:08:58;;;;;;;1.40;1.30;;;19.80;49.40;;;;;;4994462;28;20061;-66
2021/12/22 09:11:24;;;;;;;1.40;1.30;;;19.80;49.40;;;;;;5012347;28;20053;-66
2021/12/22 09:13:50;;;;;;;1.55;1.45;;;19.80;49.40;;;;;;5012223;28;20040;-66
2021/12/22 09:16:15;;;;;;;1.23;1.20;;;19.80;49.40;;;;;;5011028;28;20025;-66
2021/12/22 09:18:41;;;;;;;1.40;1.30;;;19.80;49.40;;;;;;5011010;28;20037;-66
2021/12/22 09:21:08;;;;;;;1.63;1.52;;;19.80;49.40;;;;;;4994828;28;20032;-66
2021/12/22 09:23:34;;;;;;;1.42;1.33;;;19.80;49.40;;;;;;5010756;28;20026;-66
2021/12/22 09:25:59;;;;;;;1.40;1.30;;;19.80;49.40;;;;;;5012110;28;20101;-66
2021/12/22 09:28:25;;;;;;;1.63;1.52;;;19.80;49.40;;;;;;4994626;28;20054;-66
2021/12/22 09:30:51;;;;;;;1.20;1.20;;;19.80;50.40;;;;;;5010970;28;20101;-66
2021/12/22 09:33:18;;;;;;;1.40;1.30;;;19.80;49.40;;;;;;5013241;28;20022;-66
2021/12/22 09:35:45;;;;;;;1.50;1.40;;;19.80;49.40;;;;;;4998688;28;20052;-66
2021/12/22 09:38:12;;;;;;;1.60;1.50;;;19.80;49.40;;;;;;5015648;28;20033;-66
2021/12/22 09:40:37;;;;;;;1.48;1.38;;;19.80;49.40;;;;;;5015821;28;20041;-66
2021/12/22 09:43:03;;;;;;;1.63;1.52;;;19.80;49.40;;;;;;5015535;28;20507;-66
2021/12/22 09:45:29;;;;;;;1.60;1.50;;;19.80;49.30;;;;;;5014156;28;20026;-66
2021/12/22 09:48:49;;;;;;;1.50;1.40;;;19.80;49.30;;;;;;5015541;28;20037;-66
2021/12/22 09:52:15;;;;;;;1.50;1.40;;;19.80;49.30;;;;;;5004068;28;20133;-66
2021/12/22 09:53:43;;;;;;;1.33;1.23;;;19.80;49.30;;;;;;5014004;28;20034;-66
2021/12/22 09:56:10;;;;;;;1.60;1.50;;;19.80;49.40;;;;;;4998464;28;20492;-66
2021/12/22 09:58:41;;;;;;;1.63;1.52;;;19.80;49.40;;;;;;5015372;28;20496;-66
2021/12/22 10:01:07;;;;;;;1.33;1.23;;;19.80;49.30;;;;;;4998476;28;20018;-66
2021/12/22 10:03:33;;;;;;;1.33;1.23;;;19.80;49.30;;;;;;4985094;28;20037;-66
2021/12/22 10:05:58;;;;;;;1.50;1.40;;;19.80;49.30;;;;;;4994775;28;20092;-66
2021/12/22 10:08:25;;;;;;;1.20;1.20;;;19.80;49.30;;;;;;4994967;28;20038;-66
2021/12/22 10:11:10;;;;;;;1.42;1.30;;;19.80;49.30;;;;;;4994598;28;20026;-66
2021/12/22 10:13:37;;;;;;;1.40;1.30;;;19.80;49.20;;;;;;4994459;28;20059;-66
2021/12/22 10:16:24;;;;;;;1.30;1.20;;;19.80;49.40;;;;;;4978476;28;20018;-66
2021/12/22 10:19:05;;;;;;;1.27;1.27;;;19.80;49.30;;;;;;4979460;28;20054;-66
2021/12/22 10:21:33;;;;;;;1.40;1.30;;;19.80;49.30;;;;;;4978274;28;20026;-66
2021/12/22 10:24:00;;;;;;;1.40;1.30;;;19.80;49.40;;;;;;4978583;28;20105;-66
2021/12/22 10:26:27;;;;;;;1.40;1.30;;;19.80;49.40;;;;;;4994094;28;20069;-66
2021/12/22 10:28:54;;;;;;;1.23;1.15;;;19.80;49.30;;;;;;4994238;28;20096;-66
2021/12/22 10:31:23;;;;;;;1.50;1.40;;;19.80;49.40;;;;;;4995105;28;20019;-66
2021/12/22 10:33:49;;;;;;;1.40;1.30;;;19.80;49.30;;;;;;4978159;28;20096;-66
2021/12/22 10:36:16;;;;;;;1.38;1.27;;;19.80;49.30;;;;;;4977669;28;20432;-66
2021/12/22 10:38:50;;;;;;;1.10;1.10;;;19.80;49.30;;;;;;4993890;28;20034;-66
2021/12/22 10:41:16;;;;;;;1.30;1.20;;;19.80;49.30;;;;;;4978069;28;20042;-66
2021/12/22 10:43:44;;;;;;;1.20;1.10;;;19.80;49.30;;;;;;4994739;28;20438;-66
2021/12/22 10:46:15;;;;;;;1.05;1.00;;;19.80;49.30;;;;;;5012998;28;20400;-66
2021/12/22 10:51:32;;;;;;;1.30;1.20;;;19.80;49.30;;;;;;5001674;28;20444;-66
2021/12/22 10:53:59;;;;;;;1.17;1.08;;;19.80;49.30;;;;;;5010255;28;20109;-66
2021/12/22 10:56:29;;;;;;;1.27;1.20;;;19.80;49.30;;;;;;4993316;28;20022;-66
2021/12/22 10:59:19;;;;;;;1.10;1.10;;;19.80;49.30;;;;;;5003068;28;20108;-66
2021/12/22 11:01:50;;;;;;;1.30;1.30;;;19.80;49.30;;;;;;5012543;28;20038;-66
2021/12/22 11:04:18;;;;;;;1.10;1.10;;;19.80;49.30;;;;;;5014063;28;20018;-66
2021/12/22 11:06:44;;;;;;;0.80;0.80;;;19.80;49.30;;;;;;5008952;28;20014;-66
2021/12/22 11:09:15;;;;;;;1.00;1.00;;;19.70;50.30;;;;;;4993240;28;20412;-66
2021/12/22 11:11:52;;;;;;;1.27;1.20;;;19.80;49.30;;;;;;4993346;28;20041;-66
2021/12/22 11:14:19;;;;;;;1.33;1.23;;;19.80;49.30;;;;;;4961358;28;20088;-66
2021/12/22 11:17:04;;;;;;;0.90;0.90;;;19.70;49.30;;;;;;4993178;28;20018;-66
2021/12/22 11:19:35;;;;;;;1.00;1.00;;;19.80;49.20;;;;;;4994068;28;20038;-66
2021/12/22 11:22:07;;;;;;;1.00;1.00;;;19.80;49.40;;;;;;4992921;28;20050;-66
2021/12/22 11:24:35;;;;;;;0.90;0.90;;;19.70;49.40;;;;;;5003792;28;20068;-66
2021/12/22 11:27:01;;;;;;;1.00;1.00;;;19.70;49.30;;;;;;5013783;28;20018;-66
2021/12/22 11:29:27;;;;;;;1.10;1.10;;;19.80;49.30;;;;;;5013735;28;20077;-66
2021/12/22 11:31:53;;;;;;;1.10;1.10;;;19.80;49.30;;;;;;5012438;28;20076;-66
2021/12/22 11:34:19;;;;;;;1.00;1.00;;;19.80;49.30;;;;;;5013259;28;20030;-66
2021/12/22 11:36:45;;;;;;;0.85;0.85;;;19.80;49.30;;;;;;5012537;28;20096;-66
2021/12/22 11:39:11;;;;;;;1.00;1.00;;;19.80;49.30;;;;;;5012514;28;20025;-66
2021/12/22 11:41:53;;;;;;;1.00;0.90;;;19.80;49.30;;;;;;5012282;28;20037;-66
2021/12/22 11:44:19;;;;;;;0.90;0.90;;;19.80;49.30;;;;;;5008155;28;20029;-66
2021/12/22 11:46:44;;;;;;;0.93;0.93;;;19.80;49.30;;;;;;4976519;28;20030;-66
2021/12/22 11:49:10;;;;;;;1.02;1.02;;;19.80;49.40;;;;;;4992414;28;20041;-66
2021/12/22 11:51:35;;;;;;;1.08;1.05;;;19.70;49.30;;;;;;4976466;28;20393;-66
2021/12/22 11:54:07;;;;;;;0.90;0.90;;;19.80;49.30;;;;;;4993690;28;20038;-66
2021/12/22 11:56:48;;;;;;;0.98;0.98;;;19.80;49.30;;;;;;4991578;28;20027;-66
2021/12/22 11:59:37;;;;;;;0.90;0.90;;;19.80;49.30;;;;;;5006810;28;20030;-66
2021/12/22 12:02:23;;;;;;;0.80;0.80;;;19.80;49.20;;;;;;5012001;28;20026;-66
2021/12/22 12:04:54;;;;;;;1.00;1.00;;;19.80;49.30;;;;;;4979457;28;20030;-66
2021/12/22 12:07:42;;;;;;;0.85;0.85;;;19.80;49.40;;;;;;5011804;28;20030;-66
2021/12/22 12:10:31;;;;;;;1.00;1.00;;;19.80;49.20;;;;;;4996395;28;20075;-66
2021/12/22 12:13:02;;;;;;;1.00;1.00;;;19.80;49.20;;;;;;4996166;28;20026;-66
2021/12/22 12:22:15;;;;;;;1.10;1.00;;;19.80;50.40;;;;;;5012707;28;20041;-66
2021/12/22 12:24:42;;;;;;;0.73;0.70;;;19.80;49.30;;;;;;5012822;28;20014;-66
2021/12/22 12:27:34;;;;;;;0.98;0.98;;;19.80;49.50;;;;;;5012814;28;20026;-66
2021/12/22 12:30:21;;;;;;;0.88;0.88;;;19.80;49.30;;;;;;4995234;28;20109;-66
2021/12/22 12:32:48;;;;;;;0.80;0.80;;;19.80;49.40;;;;;;5012537;28;20026;-66
2021/12/22 12:35:26;;;;;;;0.90;0.90;;;19.80;49.50;;;;;;5012818;28;20113;-66
2021/12/22 12:38:17;;;;;;;0.90;0.90;;;19.80;49.40;;;;;;5012556;28;20030;-66
2021/12/22 12:40:55;;;;;;;0.88;0.88;;;19.80;49.30;;;;;;4995090;28;20103;-66
2021/12/22 12:43:46;;;;;;;0.70;0.70;;;19.80;49.40;;;;;;5012769;28;20033;-66
2021/12/22 12:46:21;;;;;;;0.60;0.60;;;19.80;49.30;;;;;;4993059;28;20034;-66
2021/12/22 12:49:05;;;;;;;0.95;0.93;;;19.80;49.40;;;;;;4992622;28;20401;-66
2021/12/22 12:51:44;;;;;;;0.80;0.80;;;19.80;49.30;;;;;;4993016;28;20030;-66
2021/12/22 12:54:16;;;;;;;0.65;0.65;;;19.80;49.40;;;;;;4992938;28;20030;-66
2021/12/22 12:56:54;;;;;;;0.70;0.70;;;19.80;49.40;;;;;;4993085;28;20076;-66
2021/12/22 12:59:41;;;;;;;1.00;1.00;;;19.80;49.50;;;;;;5007824;28;20026;-66
2021/12/22 13:02:08;;;;;;;0.60;0.60;;;19.80;49.50;;;;;;5001095;28;20049;-66
2021/12/22 13:04:34;;;;;;;0.80;0.80;;;19.80;49.40;;;;;;4994786;28;20557;-66
2021/12/22 13:07:00;;;;;;;0.68;0.68;;;19.80;49.40;;;;;;5011126;28;20076;-66
2021/12/22 13:09:36;;;;;;;0.80;0.80;;;19.80;49.40;;;;;;5015508;28;20042;-66
2021/12/22 13:12:35;;;;;;;0.93;0.93;;;19.80;49.40;;;;;;5016265;28;20495;-66
2021/12/22 13:17:55;;;;;;;0.85;0.85;;;19.80;49.50;;;;;;5015015;28;20036;-66
2021/12/22 13:20:25;;;;;;;0.60;0.60;;;19.80;49.50;;;;;;4999299;28;20498;-66
2021/12/22 13:22:52;;;;;;;0.50;0.50;;;19.80;49.50;;;;;;5014801;28;20564;-66